createdAt,value
2018-12-25T00:02:40.531Z,98.30
2018-12-25T00:05:21.467Z,98.40
2018-12-25T00:08:02.754Z,98.40
2018-12-25T00:10:43.306Z,98.40
2018-12-25T00:13:24.161Z,98.30
2018-12-25T00:16:04.786Z,98.40
2018-12-25T00:18:45.513Z,98.40
2018-12-25T00:21:25.906Z,98.40
2018-12-25T00:24:06.682Z,98.40
2018-12-25T00:26:47.244Z,98.30
2018-12-25T00:29:27.882Z,98.40
2018-12-25T00:32:08.534Z,98.40
2018-12-25T00:34:49.174Z,98.30
2018-12-25T00:37:29.862Z,98.30
2018-12-25T00:40:10.645Z,98.20
2018-12-25T00:42:51.391Z,98.20
2018-12-25T00:45:32.044Z,98.10
2018-12-25T00:48:12.810Z,98.00
2018-12-25T00:50:53.650Z,98.10
2018-12-25T00:53:34.661Z,98.20
2018-12-25T00:56:15.602Z,98.00
2018-12-25T00:58:56.254Z,98.10
2018-12-25T01:01:36.994Z,98.20
2018-12-25T01:04:17.531Z,98.20
2018-12-25T01:06:58.377Z,98.10
2018-12-25T01:09:39.378Z,98.20
2018-12-25T01:12:20.162Z,98.20
2018-12-25T01:15:00.813Z,98.10
2018-12-25T01:17:41.695Z,98.10
2018-12-25T01:20:22.584Z,98.10
2018-12-25T01:23:03.461Z,98.10
2018-12-25T01:25:44.185Z,98.20
2018-12-25T01:28:25.073Z,98.10
2018-12-25T01:31:05.434Z,98.00
2018-12-25T01:33:46.161Z,98.00
2018-12-25T01:36:26.798Z,98.00
2018-12-25T01:39:07.302Z,98.00
2018-12-25T01:41:47.925Z,97.90
2018-12-25T01:44:28.569Z,97.90
2018-12-25T01:47:09.096Z,98.10
2018-12-25T01:49:49.871Z,98.10
2018-12-25T01:52:30.295Z,98.10
2018-12-25T01:55:10.999Z,98.00
2018-12-25T01:57:51.797Z,98.10
2018-12-25T02:00:32.446Z,98.00
2018-12-25T02:03:13.054Z,98.00
2018-12-25T02:05:53.834Z,98.00
2018-12-25T02:08:34.437Z,98.30
2018-12-25T02:11:14.922Z,98.10
2018-12-25T02:13:55.874Z,98.00
2018-12-25T02:16:36.662Z,98.00
2018-12-25T02:19:17.329Z,98.10
2018-12-25T02:21:58.187Z,98.10
2018-12-25T02:24:38.699Z,98.10
2018-12-25T02:27:19.323Z,98.20
2018-12-25T02:29:59.866Z,98.10
2018-12-25T02:32:40.689Z,98.10
2018-12-25T02:35:21.544Z,98.20
2018-12-25T02:38:02.134Z,98.20
2018-12-25T02:40:42.949Z,98.20
2018-12-25T02:43:23.428Z,98.30
2018-12-25T02:46:04.219Z,98.30
2018-12-25T02:48:44.962Z,98.50
2018-12-25T02:51:25.329Z,98.60
2018-12-25T02:54:06.073Z,98.60
2018-12-25T02:56:46.858Z,98.50
2018-12-25T02:59:27.727Z,98.40
2018-12-25T03:02:08.714Z,98.40
2018-12-25T03:04:49.327Z,98.40
2018-12-25T03:07:30.158Z,98.30
2018-12-25T03:10:10.709Z,98.30
2018-12-25T03:12:51.465Z,98.60
2018-12-25T03:15:32.566Z,98.60
2018-12-25T03:18:12.875Z,98.60
2018-12-25T03:20:53.762Z,98.80
2018-12-25T03:23:34.520Z,98.80
2018-12-25T03:26:15.545Z,99.00
2018-12-25T03:28:56.457Z,99.10
2018-12-25T03:31:37.187Z,99.30
2018-12-25T03:34:18.055Z,99.40
2018-12-25T03:36:58.767Z,99.10
2018-12-25T03:39:39.690Z,99.00
2018-12-25T03:42:20.542Z,98.80
2018-12-25T03:45:01.362Z,98.70
2018-12-25T03:47:42.116Z,98.70
2018-12-25T03:50:23.091Z,98.60
2018-12-25T03:53:03.806Z,98.80
2018-12-25T03:55:44.513Z,98.80
2018-12-25T03:58:25.150Z,98.90
2018-12-25T04:01:05.994Z,98.90
2018-12-25T04:03:47.146Z,98.80
2018-12-25T04:06:27.934Z,98.80
2018-12-25T04:09:08.646Z,99.00
2018-12-25T04:11:49.475Z,99.00
2018-12-25T04:14:30.109Z,98.90
2018-12-25T04:17:10.862Z,99.10
2018-12-25T04:19:51.886Z,99.00
2018-12-25T04:22:33.194Z,99.00
2018-12-25T04:25:14.483Z,99.00
2018-12-25T04:27:55.309Z,99.00
2018-12-25T04:30:35.951Z,99.00
2018-12-25T04:33:16.670Z,99.00
2018-12-25T04:35:57.560Z,99.00
2018-12-25T04:38:38.370Z,99.10
2018-12-25T04:41:19.223Z,99.00
2018-12-25T04:43:59.753Z,99.00
2018-12-25T04:46:40.717Z,98.90
2018-12-25T04:49:21.429Z,99.00
2018-12-25T04:52:02.022Z,98.90
2018-12-25T04:54:42.303Z,98.90
2018-12-25T04:57:23.427Z,99.00
2018-12-25T05:00:03.932Z,98.90
2018-12-25T05:02:44.710Z,98.80
2018-12-25T05:05:25.650Z,98.80
2018-12-25T05:08:06.298Z,98.50
2018-12-25T05:10:47.214Z,98.50
2018-12-25T05:13:27.898Z,98.30
2018-12-25T05:16:08.650Z,98.30
2018-12-25T05:18:49.454Z,98.20
2018-12-25T05:21:30.294Z,98.20
2018-12-25T05:24:11.202Z,98.00
2018-12-25T05:26:52.026Z,98.00
2018-12-25T05:29:32.833Z,97.70
2018-12-25T05:32:13.653Z,97.60
2018-12-25T05:34:54.581Z,97.80
2018-12-25T05:37:35.479Z,97.70
2018-12-25T05:40:16.203Z,97.70
2018-12-25T05:42:56.942Z,97.60
2018-12-25T05:45:37.825Z,97.50
2018-12-25T05:48:18.511Z,97.60
2018-12-25T05:50:59.402Z,97.60
2018-12-25T05:53:40.289Z,97.70
2018-12-25T05:56:21.106Z,97.50
2018-12-25T05:59:01.925Z,97.30
2018-12-25T06:01:42.534Z,97.40
2018-12-25T06:04:23.257Z,97.40
2018-12-25T06:07:04.086Z,97.40
2018-12-25T06:09:44.921Z,97.30
2018-12-25T06:12:25.765Z,97.30
2018-12-25T06:15:06.487Z,97.40
2018-12-25T06:17:47.158Z,97.50
2018-12-25T06:20:27.866Z,97.50
2018-12-25T06:23:08.870Z,97.40
2018-12-25T06:25:49.824Z,97.40
2018-12-25T06:28:30.415Z,97.50
2018-12-25T06:31:11.278Z,97.50
2018-12-25T06:33:51.877Z,97.50
2018-12-25T06:36:32.573Z,97.30
2018-12-25T06:39:13.434Z,97.30
2018-12-25T06:41:54.106Z,97.40
2018-12-25T06:44:35.374Z,97.40
2018-12-25T06:47:15.932Z,97.30
2018-12-25T06:49:56.458Z,97.40
2018-12-25T06:52:37.196Z,97.20
2018-12-25T06:55:18.454Z,97.40
2018-12-25T06:57:59.130Z,97.20
2018-12-25T07:00:39.558Z,97.30
2018-12-25T07:03:20.134Z,97.20
2018-12-25T07:06:00.843Z,97.20
2018-12-25T07:08:41.823Z,97.20
2018-12-25T07:11:22.745Z,97.30
2018-12-25T07:14:03.608Z,97.30
2018-12-25T07:16:44.679Z,97.40
2018-12-25T07:19:25.937Z,97.40
2018-12-25T07:22:06.642Z,97.50
2018-12-25T07:24:47.867Z,97.60
2018-12-25T07:27:28.817Z,97.70
2018-12-25T07:30:09.705Z,97.70
2018-12-25T07:32:50.519Z,97.70
2018-12-25T07:35:31.114Z,97.60
2018-12-25T07:38:11.902Z,97.60
2018-12-25T07:40:52.699Z,97.60
2018-12-25T07:43:33.601Z,97.70
2018-12-25T07:46:14.382Z,97.80
2018-12-25T07:48:54.963Z,97.80
2018-12-25T07:51:35.577Z,97.80
2018-12-25T07:54:15.923Z,97.70
2018-12-25T07:56:57.135Z,97.80
2018-12-25T07:59:37.767Z,97.70
2018-12-25T08:02:18.382Z,97.80
2018-12-25T08:04:59.266Z,97.80
2018-12-25T08:07:40.194Z,97.70
2018-12-25T08:10:21.026Z,97.60
2018-12-25T08:13:02.039Z,97.60
2018-12-25T08:15:42.439Z,97.70
2018-12-25T08:18:23.197Z,97.80
2018-12-25T08:21:03.752Z,97.80
2018-12-25T08:23:44.502Z,97.80
2018-12-25T08:26:25.366Z,97.80
2018-12-25T08:29:05.938Z,97.70
2018-12-25T08:31:46.751Z,97.80
2018-12-25T08:34:27.755Z,97.90
2018-12-25T08:37:08.566Z,97.90
2018-12-25T08:39:49.497Z,97.80
2018-12-25T08:42:30.285Z,97.80
2018-12-25T08:45:11.502Z,97.80
2018-12-25T08:47:52.072Z,97.70
2018-12-25T08:50:33.137Z,97.60
2018-12-25T08:53:14.137Z,97.60
2018-12-25T08:55:55.298Z,97.60
2018-12-25T08:58:36.258Z,97.60
2018-12-25T09:01:16.981Z,97.70
2018-12-25T09:03:57.590Z,97.70
2018-12-25T09:06:38.631Z,97.50
2018-12-25T09:09:19.238Z,97.60
2018-12-25T09:11:59.913Z,97.70
2018-12-25T09:14:40.925Z,97.40
2018-12-25T09:17:21.722Z,97.50
2018-12-25T09:20:02.322Z,97.20
2018-12-25T09:22:43.026Z,97.40
2018-12-25T09:25:23.943Z,97.30
2018-12-25T09:28:04.850Z,97.30
2018-12-25T09:30:45.670Z,97.50
2018-12-25T09:33:26.474Z,97.30
2018-12-25T09:36:07.029Z,97.20
2018-12-25T09:38:47.806Z,97.20
2018-12-25T09:41:28.822Z,97.20
2018-12-25T09:44:09.711Z,96.90
2018-12-25T09:46:50.319Z,96.90
2018-12-25T09:49:31.557Z,97.00
2018-12-25T09:52:10.910Z,96.80
2018-12-25T09:54:58.958Z,96.60
2018-12-25T09:57:47.116Z,96.70
2018-12-25T10:00:35.242Z,96.50
2018-12-25T10:03:23.297Z,96.60
2018-12-25T10:06:11.426Z,96.80
2018-12-25T10:08:59.566Z,96.20
2018-12-25T10:11:47.618Z,96.40
2018-12-25T10:14:35.783Z,96.30
2018-12-25T10:17:16.766Z,96.50
2018-12-25T10:19:57.749Z,96.50
2018-12-25T10:22:38.478Z,96.40
2018-12-25T10:25:19.299Z,96.20
2018-12-25T10:28:00.060Z,96.10
2018-12-25T10:30:41.042Z,96.10
2018-12-25T10:33:21.571Z,96.10
2018-12-25T10:36:02.237Z,95.80
2018-12-25T10:38:43.118Z,95.70
2018-12-25T10:41:23.698Z,96.00
2018-12-25T10:44:04.490Z,96.00
2018-12-25T10:46:45.477Z,96.00
2018-12-25T10:49:26.192Z,96.20
2018-12-25T10:52:11.573Z,95.90
2018-12-25T10:54:49.735Z,96.00
2018-12-25T10:57:30.566Z,95.60
2018-12-25T11:00:11.413Z,95.70
2018-12-25T11:02:52.170Z,95.40
2018-12-25T11:05:32.947Z,95.50
2018-12-25T11:08:13.891Z,95.80
2018-12-25T11:10:54.811Z,95.70
2018-12-25T11:13:35.428Z,95.60
2018-12-25T11:16:16.238Z,96.00
2018-12-25T11:18:56.886Z,95.80
2018-12-25T11:21:38.162Z,95.70
2018-12-25T11:24:19.017Z,95.80
2018-12-25T11:27:00.004Z,96.00
2018-12-25T11:29:40.834Z,95.80
2018-12-25T11:32:21.665Z,96.00
2018-12-25T11:35:02.868Z,96.10
2018-12-25T11:37:43.505Z,96.10
2018-12-25T11:40:24.198Z,95.60
2018-12-25T11:43:04.902Z,95.90
2018-12-25T11:45:45.707Z,95.90
2018-12-25T11:48:26.610Z,95.50
2018-12-25T11:51:07.318Z,95.90
2018-12-25T11:53:47.939Z,96.30
2018-12-25T11:56:28.926Z,96.10
2018-12-25T11:59:09.823Z,95.80
2018-12-25T12:01:50.786Z,95.40
2018-12-25T12:04:31.802Z,95.40
2018-12-25T12:07:12.790Z,95.40
2018-12-25T12:09:53.814Z,95.30
2018-12-25T12:12:34.686Z,95.20
2018-12-25T12:15:15.469Z,95.00
2018-12-25T12:17:56.406Z,95.20
2018-12-25T12:20:37.143Z,95.30
2018-12-25T12:23:18.097Z,95.10
2018-12-25T12:25:58.858Z,95.00
2018-12-25T12:28:40.171Z,95.10
2018-12-25T12:31:21.985Z,95.20
2018-12-25T12:34:03.183Z,95.30
2018-12-25T12:36:44.375Z,95.40
2018-12-25T12:39:25.322Z,95.30
2018-12-25T12:42:06.537Z,95.30
2018-12-25T12:44:47.299Z,95.20
2018-12-25T12:47:27.962Z,95.00
2018-12-25T12:50:08.609Z,95.00
2018-12-25T12:52:49.459Z,95.10
2018-12-25T12:55:30.143Z,95.10
2018-12-25T12:58:11.033Z,94.90
2018-12-25T13:00:51.622Z,94.90
2018-12-25T13:03:32.457Z,95.00
2018-12-25T13:06:13.114Z,95.00
2018-12-25T13:08:53.909Z,95.10
2018-12-25T13:11:34.670Z,94.90
2018-12-25T13:14:15.694Z,95.10
2018-12-25T13:16:56.699Z,95.10
2018-12-25T13:19:37.468Z,95.40
2018-12-25T13:22:18.418Z,95.50
2018-12-25T13:24:59.346Z,95.30
2018-12-25T13:27:41.435Z,95.20
2018-12-25T13:30:22.209Z,95.40
2018-12-25T13:33:03.572Z,95.10
2018-12-25T13:35:44.038Z,95.30
2018-12-25T13:38:24.630Z,94.90
2018-12-25T13:41:05.522Z,94.60
2018-12-25T13:43:46.454Z,94.60
2018-12-25T13:46:27.183Z,94.30
2018-12-25T13:49:08.330Z,94.30
2018-12-25T13:51:49.494Z,94.50
2018-12-25T13:54:30.801Z,94.60
2018-12-25T13:57:11.550Z,94.80
2018-12-25T13:59:54.163Z,94.70
2018-12-25T14:02:34.946Z,94.60
2018-12-25T14:05:15.575Z,94.60
2018-12-25T14:07:56.406Z,94.80
2018-12-25T14:10:36.857Z,94.80
2018-12-25T14:13:18.039Z,94.70
2018-12-25T14:15:58.694Z,94.90
2018-12-25T14:18:39.562Z,95.00
2018-12-25T14:21:20.734Z,94.80
2018-12-25T14:24:01.513Z,95.10
2018-12-25T14:26:42.530Z,95.20
2018-12-25T14:29:21.663Z,95.60
2018-12-25T14:32:10.022Z,95.50
2018-12-25T14:34:58.085Z,95.20
2018-12-25T14:37:46.132Z,95.20
2018-12-25T14:40:34.801Z,95.10
2018-12-25T14:43:22.928Z,95.10
2018-12-25T14:46:11.007Z,95.10
2018-12-25T14:48:59.070Z,95.20
2018-12-25T14:51:47.201Z,96.10
2018-12-25T14:54:35.573Z,95.00
2018-12-25T14:57:23.697Z,95.20
2018-12-25T15:00:11.854Z,95.50
2018-12-25T15:02:59.894Z,99.90
2018-12-25T15:05:47.953Z,96.00
2018-12-25T15:08:36.209Z,94.60
2018-12-25T15:11:24.369Z,94.60
2018-12-25T15:14:12.524Z,94.90
2018-12-25T15:17:00.658Z,95.00
2018-12-25T15:19:41.706Z,95.10
2018-12-25T15:22:22.551Z,95.40
2018-12-25T15:25:03.825Z,95.50
2018-12-25T15:27:44.498Z,95.60
2018-12-25T15:30:25.043Z,95.60
2018-12-25T15:33:06.279Z,95.70
2018-12-25T15:35:47.262Z,95.50
2018-12-25T15:38:28.102Z,95.50
2018-12-25T15:41:09.101Z,95.80
2018-12-25T15:43:50.149Z,95.70
2018-12-25T15:46:30.543Z,95.80
2018-12-25T15:49:11.126Z,95.90
2018-12-25T15:51:51.964Z,96.00
2018-12-25T15:54:32.778Z,96.10
2018-12-25T15:57:13.806Z,96.20
2018-12-25T15:59:54.666Z,96.20
2018-12-25T16:02:35.676Z,96.20
2018-12-25T16:05:16.748Z,96.10
2018-12-25T16:07:57.430Z,96.10
2018-12-25T16:10:38.092Z,96.10
2018-12-25T16:13:18.846Z,96.50
2018-12-25T16:15:59.710Z,96.70
2018-12-25T16:18:40.722Z,96.70
2018-12-25T16:21:21.966Z,96.60
2018-12-25T16:24:03.039Z,96.80
2018-12-25T16:26:43.922Z,96.90
2018-12-25T16:29:24.799Z,96.90
2018-12-25T16:32:05.420Z,97.00
2018-12-25T16:34:46.513Z,96.90
2018-12-25T16:37:27.638Z,97.10
2018-12-25T16:40:08.482Z,97.30
2018-12-25T16:42:49.217Z,97.30
2018-12-25T16:45:30.122Z,97.10
2018-12-25T16:48:10.950Z,97.40
2018-12-25T16:50:51.953Z,97.30
2018-12-25T16:53:32.768Z,97.30
2018-12-25T16:56:13.754Z,97.50
2018-12-25T16:58:54.522Z,97.50
2018-12-25T17:01:35.446Z,97.60
2018-12-25T17:04:19.061Z,97.80
2018-12-25T17:06:58.220Z,97.60
2018-12-25T17:09:46.367Z,97.60
2018-12-25T17:12:34.497Z,97.50
2018-12-25T17:15:22.628Z,97.70
2018-12-25T17:18:03.765Z,97.90
2018-12-25T17:20:44.462Z,97.90
2018-12-25T17:23:25.174Z,97.80
2018-12-25T17:26:05.692Z,97.80
2018-12-25T17:29:56.054Z,97.90
2018-12-25T17:32:37.031Z,98.10
2018-12-25T17:35:17.682Z,97.80
2018-12-25T17:37:58.694Z,97.90
2018-12-25T17:40:39.470Z,97.80
2018-12-25T17:43:20.493Z,97.80
2018-12-25T17:46:01.296Z,97.80
2018-12-25T17:48:41.837Z,97.80
2018-12-25T17:51:22.585Z,98.00
2018-12-25T17:54:10.655Z,97.90
2018-12-25T17:56:46.337Z,98.10
2018-12-25T17:59:27.399Z,98.10
2018-12-25T18:02:08.540Z,97.90
2018-12-25T18:04:49.582Z,97.80
2018-12-25T18:07:30.370Z,98.00
2018-12-25T18:10:11.394Z,97.80
2018-12-25T18:12:52.295Z,97.90
2018-12-25T18:15:33.178Z,98.00
2018-12-25T18:18:13.934Z,98.00
2018-12-25T18:20:54.877Z,98.20
2018-12-25T18:23:35.687Z,97.90
2018-12-25T18:26:16.281Z,98.20
2018-12-25T18:28:57.241Z,98.20
2018-12-25T18:31:38.252Z,98.00
2018-12-25T18:34:19.126Z,97.80
2018-12-25T18:36:59.562Z,97.90
2018-12-25T18:39:40.218Z,97.80
2018-12-25T18:42:23.298Z,97.90
2018-12-25T18:45:04.004Z,97.80
2018-12-25T18:47:45.202Z,98.00
2018-12-25T18:50:25.788Z,98.00
2018-12-25T18:53:06.623Z,98.10
2018-12-25T18:55:47.408Z,97.80
2018-12-25T18:58:28.032Z,97.70
2018-12-25T19:01:08.610Z,98.00
2018-12-25T19:03:49.538Z,98.10
2018-12-25T19:06:30.266Z,98.10
2018-12-25T19:09:11.047Z,98.00
2018-12-25T19:11:51.786Z,98.00
2018-12-25T19:14:32.686Z,97.90
2018-12-25T19:17:13.574Z,97.90
2018-12-25T19:19:54.733Z,97.90
2018-12-25T19:22:35.506Z,97.90
2018-12-25T19:25:16.297Z,97.90
2018-12-25T19:27:57.286Z,98.00
2018-12-25T19:30:38.044Z,97.90
2018-12-25T19:33:19.058Z,98.00
2018-12-25T19:36:00.321Z,98.00
2018-12-25T19:38:40.777Z,98.10
2018-12-25T19:41:21.378Z,98.10
2018-12-25T19:44:02.262Z,98.00
2018-12-25T19:46:43.015Z,98.10
2018-12-25T19:49:23.854Z,98.20
2018-12-25T19:52:04.529Z,98.10
2018-12-25T19:54:45.234Z,98.00
2018-12-25T19:57:26.265Z,98.10
2018-12-25T20:00:07.438Z,98.10
2018-12-25T20:02:48.166Z,98.20
2018-12-25T20:05:28.954Z,98.10
2018-12-25T20:08:09.575Z,98.10
2018-12-25T20:10:50.577Z,98.00
2018-12-25T20:13:31.482Z,97.90
2018-12-25T20:16:12.214Z,97.80
2018-12-25T20:18:53.202Z,98.10
2018-12-25T20:21:34.035Z,98.00
2018-12-25T20:24:19.403Z,98.10
2018-12-25T20:26:57.306Z,97.80
2018-12-25T20:29:38.204Z,98.00
2018-12-25T20:32:19.174Z,98.10
2018-12-25T20:34:59.978Z,98.00
2018-12-25T20:37:40.998Z,98.10
2018-12-25T20:40:21.813Z,98.00
2018-12-25T20:43:02.750Z,98.00
2018-12-25T20:45:43.377Z,97.90
2018-12-25T20:48:24.034Z,97.70
2018-12-25T20:51:04.695Z,98.00
2018-12-25T20:53:45.465Z,97.90
2018-12-25T20:56:26.377Z,98.00
2018-12-25T20:59:07.082Z,98.40
2018-12-25T21:01:48.186Z,98.20
2018-12-25T21:04:29.219Z,98.30
2018-12-25T21:07:10.390Z,98.30
2018-12-25T21:09:51.391Z,97.90
2018-12-25T21:12:32.196Z,97.80
2018-12-25T21:15:13.010Z,97.80
2018-12-25T21:17:53.779Z,97.80
2018-12-25T21:20:34.551Z,97.70
2018-12-25T21:23:15.522Z,98.10
2018-12-25T21:25:56.023Z,97.80
2018-12-25T21:28:35.516Z,97.70
2018-12-25T21:31:23.686Z,97.90
2018-12-25T21:34:11.898Z,98.00
2018-12-25T21:37:00.114Z,97.90
2018-12-25T21:43:03.223Z,97.80
2018-12-25T21:45:51.447Z,97.90
2018-12-25T21:48:39.571Z,97.80
2018-12-25T21:51:27.770Z,97.80
2018-12-25T21:54:16.506Z,97.80
2018-12-25T21:57:04.629Z,97.90
2018-12-25T21:59:52.883Z,97.80
2018-12-25T22:02:41.021Z,97.60
2018-12-25T22:05:29.165Z,97.80
2018-12-25T22:10:35.946Z,97.90
2018-12-25T22:13:17.086Z,97.80
2018-12-25T22:15:58.054Z,97.80
2018-12-25T22:18:38.715Z,97.90
2018-12-25T22:21:19.941Z,97.70
2018-12-25T22:24:00.799Z,97.90
2018-12-25T22:26:41.506Z,97.80
2018-12-25T22:29:22.458Z,97.60
2018-12-25T22:32:03.054Z,97.70
2018-12-25T22:34:43.885Z,97.80
2018-12-25T22:37:24.300Z,97.80
2018-12-25T22:40:05.434Z,97.70
2018-12-25T22:42:46.126Z,97.70
2018-12-25T22:45:26.761Z,97.90
2018-12-25T22:48:07.237Z,97.80
2018-12-25T22:50:48.058Z,97.80
2018-12-25T22:53:28.723Z,97.70
2018-12-25T22:56:09.113Z,97.60
2018-12-25T22:58:49.638Z,97.60
2018-12-25T23:01:30.310Z,97.50
2018-12-25T23:04:10.905Z,97.60
2018-12-25T23:06:51.489Z,97.80
2018-12-25T23:09:32.090Z,97.90
2018-12-25T23:12:13.195Z,97.80
2018-12-25T23:14:53.590Z,98.00
2018-12-25T23:17:34.570Z,97.80
2018-12-25T23:20:15.262Z,97.70
2018-12-25T23:22:56.010Z,97.60
2018-12-25T23:25:44.449Z,97.60
2018-12-25T23:28:19.526Z,97.40
2018-12-25T23:31:00.182Z,97.50
2018-12-25T23:33:41.060Z,97.80
2018-12-25T23:36:20.309Z,97.90
2018-12-25T23:39:08.535Z,97.80
2018-12-25T23:41:56.705Z,97.60
2018-12-25T23:44:44.889Z,97.60
2018-12-25T23:47:32.970Z,97.70
2018-12-25T23:50:21.199Z,97.70
2018-12-25T23:56:03.608Z,97.30
2018-12-25T23:58:51.762Z,97.40
